createdAt,value
2023-02-19T00:02:59.954Z,6.24
2023-02-19T00:14:27.018Z,6.18
2023-02-19T00:25:51.864Z,6.12
2023-02-19T00:37:16.680Z,6.04
2023-02-19T00:48:41.713Z,5.96
2023-02-19T01:00:06.504Z,5.94
2023-02-19T01:11:31.306Z,6.01
2023-02-19T01:22:45.076Z,6.02
2023-02-19T01:34:09.895Z,5.95
2023-02-19T01:45:33.025Z,5.76
2023-02-19T01:56:57.727Z,5.67
2023-02-19T02:08:21.267Z,5.69
2023-02-19T02:19:54.850Z,5.67
2023-02-19T02:31:29.712Z,5.67
2023-02-19T02:42:56.187Z,5.77
2023-02-19T02:54:41.056Z,5.68
2023-02-19T03:06:13.041Z,5.61
2023-02-19T03:17:36.229Z,5.55
2023-02-19T03:28:59.623Z,5.54
2023-02-19T03:40:25.640Z,5.60
2023-02-19T03:52:02.862Z,5.58
2023-02-19T04:03:29.153Z,5.59
2023-02-19T04:14:59.445Z,5.65
2023-02-19T04:26:24.161Z,5.64
2023-02-19T04:37:37.658Z,5.53
2023-02-19T04:48:51.474Z,5.55
2023-02-19T04:59:57.891Z,5.59
2023-02-19T05:11:22.684Z,5.69
2023-02-19T05:22:36.301Z,5.71
2023-02-19T05:33:54.417Z,5.56
2023-02-19T05:45:11.247Z,5.43
2023-02-19T05:56:36.073Z,5.52
2023-02-19T06:07:44.189Z,5.57
2023-02-19T06:18:57.850Z,5.62
2023-02-19T06:29:47.976Z,5.66
2023-02-19T06:41:13.191Z,5.50
2023-02-19T06:52:20.942Z,5.41
2023-02-19T07:03:46.582Z,5.57
2023-02-19T07:14:58.900Z,5.68
2023-02-19T07:26:04.093Z,5.83
2023-02-19T07:37:28.064Z,6.04
2023-02-19T07:48:43.018Z,6.27
2023-02-19T08:00:07.904Z,6.43
2023-02-19T08:11:31.497Z,6.52
2023-02-19T08:22:56.725Z,6.67
2023-02-19T08:34:21.692Z,6.66
2023-02-19T08:45:47.298Z,6.53
2023-02-19T08:57:06.334Z,6.66
2023-02-19T09:08:16.746Z,6.85
2023-02-19T09:19:34.547Z,7.07
2023-02-19T09:30:49.710Z,7.15
2023-02-19T09:42:13.504Z,7.08
2023-02-19T09:53:39.116Z,7.14
2023-02-19T10:04:45.808Z,7.25
2023-02-19T10:16:11.047Z,7.17
2023-02-19T10:27:29.227Z,7.07
2023-02-19T10:38:37.981Z,7.03
2023-02-19T10:50:16.808Z,6.90
2023-02-19T11:01:35.263Z,6.82
2023-02-19T11:12:01.478Z,6.86
2023-02-19T11:23:36.011Z,6.75
2023-02-19T11:35:16.282Z,6.47
2023-02-19T11:46:54.211Z,6.44
2023-02-19T11:58:36.105Z,6.47
2023-02-19T12:10:29.058Z,6.34
2023-02-19T12:22:09.943Z,6.16
2023-02-19T12:33:40.768Z,6.06
2023-02-19T12:45:19.640Z,6.10
2023-02-19T12:56:35.145Z,5.95
2023-02-19T13:08:15.953Z,5.60
2023-02-19T13:19:46.905Z,5.41
2023-02-19T13:31:11.028Z,5.32
2023-02-19T13:41:32.898Z,5.27
2023-02-19T13:52:34.340Z,5.22
2023-02-19T14:04:09.704Z,5.08
2023-02-19T14:15:35.421Z,4.99
2023-02-19T14:27:06.955Z,4.97
2023-02-19T14:38:41.285Z,4.86
2023-02-19T14:50:21.187Z,4.64
2023-02-19T15:01:53.394Z,4.36
2023-02-19T15:13:09.429Z,4.13
2023-02-19T15:24:28.303Z,3.98
2023-02-19T15:35:47.373Z,3.79
2023-02-19T15:47:11.717Z,3.62
2023-02-19T15:58:32.598Z,3.45
2023-02-19T16:09:41.474Z,3.19
2023-02-19T16:21:00.904Z,3.05
2023-02-19T16:32:30.916Z,2.86
2023-02-19T16:44:09.205Z,2.86
2023-02-19T16:55:37.107Z,2.89
2023-02-19T17:06:50.970Z,2.91
2023-02-19T17:18:10.346Z,2.87
2023-02-19T17:29:29.148Z,2.85
2023-02-19T17:41:05.854Z,2.71
2023-02-19T17:52:35.105Z,2.55
2023-02-19T18:03:29.665Z,2.54
2023-02-19T18:14:51.980Z,2.62
2023-02-19T18:26:20.742Z,2.55
2023-02-19T18:37:38.732Z,2.49
2023-02-19T18:48:54.226Z,2.47
2023-02-19T19:00:14.420Z,2.44
2023-02-19T19:11:43.120Z,2.34
2023-02-19T19:23:11.874Z,2.40
2023-02-19T19:34:32.960Z,2.44
2023-02-19T19:46:00.726Z,2.41
2023-02-19T19:57:18.815Z,2.44
2023-02-19T20:08:49.938Z,2.39
2023-02-19T20:20:19.074Z,2.34
2023-02-19T20:31:47.645Z,2.35
2023-02-19T20:43:07.314Z,2.25
2023-02-19T20:53:53.331Z,2.24
2023-02-19T21:05:12.501Z,2.20
2023-02-19T21:16:23.734Z,2.06
2023-02-19T21:27:50.881Z,1.87
2023-02-19T21:39:07.036Z,1.66
2023-02-19T21:50:18.328Z,1.46
2023-02-19T22:01:34.123Z,1.32
2023-02-19T22:13:00.835Z,1.25
2023-02-19T22:24:26.136Z,1.35
2023-02-19T22:35:40.059Z,1.52
2023-02-19T22:46:58.135Z,1.67
2023-02-19T22:58:23.106Z,1.81
2023-02-19T23:09:55.254Z,1.75
2023-02-19T23:21:20.169Z,1.80
2023-02-19T23:32:45.397Z,1.74
2023-02-19T23:44:10.408Z,1.60
2023-02-19T23:55:35.630Z,1.53
